North Logan, Utah
Current Conditions -  °F | °C
As of 5:51 AM on Friday 28 Nov 2014 (Local Time) from KLGU Reporting Station
Clear Clear  
Wind Chill: 24°   Ceiling: Unl
Heat Index: 29°   Visibility: 10mi
Dew Point: 26°   Wind: 5mph
Humidity: 89%   Direction: 70°ENE
Pressure: 30.02"   Gusts: NA
Location:  41.7766°N, 111.794°W
Report Text: KLGU 281251Z AUTO 07004KT 10SM CLR M02/M03 A3002 RMK AO2 SLP174 T10171033
Loading
Personal Weather Stations






























Interactive Weather Map New forecast layout! Learn more

10-Day Weather Forecast

Advertisements
Track Severe Weather on mobile